createdAt,value
2022-11-08T00:00:41.960Z,4.33
2022-11-08T00:03:10.453Z,3.80
2022-11-08T00:05:57.475Z,3.80
2022-11-08T00:08:43.303Z,4.43
2022-11-08T00:11:28.927Z,3.87
2022-11-08T00:14:00.373Z,3.87
2022-11-08T00:16:29.242Z,3.80
2022-11-08T00:18:57.911Z,4.33
2022-11-08T00:21:27.819Z,4.20
2022-11-08T00:23:56.140Z,4.30
2022-11-08T00:26:24.386Z,4.03
2022-11-08T00:28:52.762Z,4.07
2022-11-08T00:31:21.076Z,4.53
2022-11-08T00:33:49.382Z,3.83
2022-11-08T00:36:17.742Z,4.47
2022-11-08T00:38:47.457Z,3.87
2022-11-08T00:41:15.987Z,4.33
2022-11-08T00:43:44.399Z,3.90
2022-11-08T00:46:12.856Z,4.07
2022-11-08T00:48:41.100Z,3.97
2022-11-08T00:51:11.267Z,4.00
2022-11-08T00:53:40.037Z,4.13
2022-11-08T00:56:13.524Z,3.80
2022-11-08T00:58:43.893Z,3.80
2022-11-08T01:01:14.241Z,3.77
2022-11-08T01:03:44.112Z,3.47
2022-11-08T01:06:14.207Z,3.70
2022-11-08T01:08:43.656Z,3.87
2022-11-08T01:11:15.987Z,3.33
2022-11-08T01:13:44.663Z,4.07
2022-11-08T01:16:15.474Z,3.30
2022-11-08T01:18:44.552Z,3.60
2022-11-08T01:21:13.988Z,3.80
2022-11-08T01:23:43.761Z,3.80
2022-11-08T01:26:15.546Z,3.80
2022-11-08T01:28:44.123Z,4.00
2022-11-08T01:31:14.521Z,4.37
2022-11-08T01:33:58.081Z,3.53
2022-11-08T01:36:28.307Z,2.83
2022-11-08T01:38:57.018Z,2.10
2022-11-08T01:41:27.856Z,1.80
2022-11-08T01:43:58.638Z,1.23
2022-11-08T01:46:43.177Z,1.10
2022-11-08T01:49:29.911Z,0.97
2022-11-08T01:52:09.123Z,0.90
2022-11-08T01:54:44.510Z,1.00
2022-11-08T01:57:17.919Z,0.90
2022-11-08T01:59:48.543Z,0.87
2022-11-08T02:02:17.421Z,0.80
2022-11-08T02:04:45.885Z,1.20
2022-11-08T02:07:15.240Z,0.90
2022-11-08T02:09:46.799Z,1.00
2022-11-08T02:12:18.619Z,1.10
2022-11-08T02:14:46.915Z,1.20
2022-11-08T02:17:16.003Z,1.07
2022-11-08T02:19:46.694Z,1.00
2022-11-08T02:22:22.354Z,1.00
2022-11-08T02:24:54.266Z,1.03
2022-11-08T02:27:22.603Z,1.00
2022-11-08T02:29:54.651Z,0.93
2022-11-08T02:32:23.361Z,1.00
2022-11-08T02:34:55.775Z,1.20
2022-11-08T02:37:25.479Z,1.27
2022-11-08T02:39:55.075Z,1.10
2022-11-08T02:42:23.425Z,1.03
2022-11-08T02:44:51.826Z,1.20
2022-11-08T02:47:20.193Z,1.27
2022-11-08T02:49:48.460Z,1.20
2022-11-08T02:52:16.760Z,1.17
2022-11-08T02:54:45.078Z,1.13
2022-11-08T02:57:14.953Z,1.00
2022-11-08T02:59:43.412Z,1.20
2022-11-08T03:02:12.003Z,1.30
2022-11-08T03:04:40.417Z,1.40
2022-11-08T03:07:08.790Z,1.10
2022-11-08T03:09:37.145Z,1.20
2022-11-08T03:12:05.882Z,1.20
2022-11-08T03:14:35.463Z,1.20
2022-11-08T03:17:04.704Z,1.37
2022-11-08T03:19:32.922Z,1.40
2022-11-08T03:22:01.646Z,1.33
2022-11-08T03:24:29.869Z,1.40
2022-11-08T03:26:58.225Z,1.40
2022-11-08T03:29:26.869Z,1.73
2022-11-08T03:31:56.673Z,1.40
2022-11-08T03:34:25.105Z,1.60
2022-11-08T03:36:53.432Z,1.67
2022-11-08T03:39:21.975Z,1.30
2022-11-08T03:41:50.422Z,1.40
2022-11-08T03:44:18.972Z,1.47
2022-11-08T03:46:47.278Z,1.30
2022-11-08T03:49:16.938Z,1.50
2022-11-08T03:51:45.281Z,1.20
2022-11-08T03:54:13.642Z,1.30
2022-11-08T03:56:41.873Z,1.30
2022-11-08T03:59:11.849Z,1.20
2022-11-08T04:01:40.776Z,1.30
2022-11-08T04:04:09.315Z,1.23
2022-11-08T04:06:39.427Z,1.13
2022-11-08T04:09:07.691Z,1.20
2022-11-08T04:11:53.260Z,1.30
2022-11-08T04:14:38.788Z,1.30
2022-11-08T04:17:07.209Z,1.40
2022-11-08T04:19:52.705Z,1.50
2022-11-08T04:22:22.337Z,1.27
2022-11-08T04:24:50.543Z,1.33
2022-11-08T04:27:18.891Z,1.47
2022-11-08T04:29:47.188Z,1.60
2022-11-08T04:32:15.497Z,1.77
2022-11-08T04:34:43.815Z,1.60
2022-11-08T04:37:12.100Z,1.90
2022-11-08T04:39:41.896Z,1.50
2022-11-08T04:42:10.229Z,2.30
2022-11-08T04:44:38.552Z,1.73
2022-11-08T04:47:07.088Z,1.80
2022-11-08T04:49:35.559Z,1.90
2022-11-08T04:52:03.987Z,1.70
2022-11-08T04:54:32.268Z,1.80
2022-11-08T04:57:01.912Z,1.97
2022-11-08T04:59:30.216Z,2.10
2022-11-08T05:01:58.862Z,1.60
2022-11-08T05:04:27.199Z,1.93
2022-11-08T05:06:55.466Z,1.90
2022-11-08T05:09:23.892Z,1.80
2022-11-08T05:11:52.180Z,2.03
2022-11-08T05:14:21.927Z,2.30
2022-11-08T05:16:50.927Z,2.30
2022-11-08T05:19:39.245Z,2.00
2022-11-08T05:22:26.397Z,2.57
2022-11-08T05:24:54.724Z,2.13
2022-11-08T05:27:22.997Z,2.50
2022-11-08T05:29:52.645Z,3.20
2022-11-08T05:32:20.953Z,2.20
2022-11-08T05:34:49.237Z,2.67
2022-11-08T05:37:17.543Z,2.50
2022-11-08T05:39:45.981Z,2.67
2022-11-08T05:42:14.419Z,2.93
2022-11-08T05:44:42.773Z,2.83
2022-11-08T05:47:12.559Z,3.03
2022-11-08T05:49:40.915Z,3.07
2022-11-08T05:52:09.351Z,3.60
2022-11-08T05:54:38.044Z,3.47
2022-11-08T05:57:08.215Z,3.93
2022-11-08T05:59:36.898Z,3.13
2022-11-08T06:02:05.546Z,3.80
2022-11-08T06:04:35.443Z,3.60
2022-11-08T06:07:03.700Z,4.07
2022-11-08T06:09:31.987Z,3.90
2022-11-08T06:12:00.285Z,3.73
2022-11-08T06:14:28.964Z,3.50
2022-11-08T06:16:59.162Z,3.53
2022-11-08T06:19:28.220Z,3.77
2022-11-08T06:21:58.420Z,3.93
2022-11-08T06:24:27.153Z,3.50
2022-11-08T06:26:58.251Z,4.03
2022-11-08T06:29:27.579Z,3.43
2022-11-08T06:32:13.317Z,4.03
2022-11-08T06:34:42.304Z,3.30
2022-11-08T06:37:12.098Z,3.80
2022-11-08T06:39:40.612Z,4.07
2022-11-08T06:42:10.001Z,4.43
2022-11-08T06:44:38.686Z,4.93
2022-11-08T22:32:48.537Z,3.93
2022-11-08T22:35:16.931Z,3.57
2022-11-08T22:37:45.308Z,3.43
2022-11-08T22:40:14.047Z,3.73
2022-11-08T22:42:42.386Z,3.77
2022-11-08T22:45:11.764Z,3.47
2022-11-08T22:47:39.980Z,3.43
2022-11-08T22:50:10.403Z,3.90
2022-11-08T22:52:58.951Z,4.07
2022-11-08T22:55:27.424Z,3.57
2022-11-08T22:57:57.036Z,3.73
2022-11-08T23:00:25.509Z,3.60
2022-11-08T23:02:53.749Z,3.57
2022-11-08T23:05:23.564Z,3.63
2022-11-08T23:07:51.812Z,4.07
2022-11-08T23:10:20.263Z,3.70
2022-11-08T23:13:05.791Z,3.80
2022-11-08T23:15:47.976Z,3.67
2022-11-08T23:18:16.239Z,3.93
2022-11-08T23:21:03.703Z,3.80
2022-11-08T23:23:54.466Z,3.37
2022-11-08T23:26:44.823Z,3.57
2022-11-08T23:29:30.760Z,4.17
2022-11-08T23:31:59.013Z,3.73
2022-11-08T23:34:27.269Z,3.33
2022-11-08T23:36:56.947Z,3.70
2022-11-08T23:39:25.226Z,4.23
2022-11-08T23:42:10.758Z,2.97
2022-11-08T23:44:39.027Z,3.77
2022-11-08T23:47:07.318Z,3.70
2022-11-08T23:49:35.720Z,3.47
2022-11-08T23:52:05.732Z,3.57
2022-11-08T23:54:34.021Z,3.40
2022-11-08T23:57:02.287Z,3.67
2022-11-08T23:59:30.570Z,3.57
